sensor_id;sensor_type;location;lat;lon;timestamp;P1;durP1;ratioP1;P2;durP2;ratioP2
27257;SDS011;62045;49.986;8.672;2022-12-18T00:03:14;6.25;;;4.53;;
27257;SDS011;62045;49.986;8.672;2022-12-18T00:08:17;5.68;;;3.83;;
27257;SDS011;62045;49.986;8.672;2022-12-18T00:13:18;6.88;;;4.72;;
27257;SDS011;62045;49.986;8.672;2022-12-18T00:18:19;6.38;;;4.68;;
27257;SDS011;62045;49.986;8.672;2022-12-18T00:23:21;8.02;;;5.00;;
27257;SDS011;62045;49.986;8.672;2022-12-18T00:28:21;6.47;;;4.55;;
27257;SDS011;62045;49.986;8.672;2022-12-18T00:33:22;6.60;;;4.25;;
27257;SDS011;62045;49.986;8.672;2022-12-18T00:38:24;6.68;;;4.30;;
27257;SDS011;62045;49.986;8.672;2022-12-18T00:43:25;5.70;;;3.85;;
27257;SDS011;62045;49.986;8.672;2022-12-18T00:48:26;6.22;;;4.63;;
27257;SDS011;62045;49.986;8.672;2022-12-18T00:53:28;5.70;;;4.10;;
27257;SDS011;62045;49.986;8.672;2022-12-18T00:58:30;5.50;;;3.92;;
27257;SDS011;62045;49.986;8.672;2022-12-18T01:03:30;6.20;;;4.10;;
27257;SDS011;62045;49.986;8.672;2022-12-18T01:08:33;5.38;;;4.07;;
27257;SDS011;62045;49.986;8.672;2022-12-18T01:13:33;5.80;;;4.30;;
27257;SDS011;62045;49.986;8.672;2022-12-18T01:18:34;6.13;;;4.38;;
27257;SDS011;62045;49.986;8.672;2022-12-18T01:23:37;5.75;;;4.32;;
27257;SDS011;62045;49.986;8.672;2022-12-18T01:28:37;5.70;;;4.22;;
27257;SDS011;62045;49.986;8.672;2022-12-18T01:33:39;6.55;;;4.43;;
27257;SDS011;62045;49.986;8.672;2022-12-18T01:38:41;6.97;;;4.60;;
27257;SDS011;62045;49.986;8.672;2022-12-18T01:43:47;5.90;;;4.57;;
27257;SDS011;62045;49.986;8.672;2022-12-18T01:48:50;5.97;;;4.40;;
27257;SDS011;62045;49.986;8.672;2022-12-18T01:53:55;5.50;;;4.28;;
27257;SDS011;62045;49.986;8.672;2022-12-18T01:58:58;6.90;;;4.85;;
27257;SDS011;62045;49.986;8.672;2022-12-18T02:04:16;5.43;;;4.00;;
27257;SDS011;62045;49.986;8.672;2022-12-18T02:09:23;6.03;;;4.10;;
27257;SDS011;62045;49.986;8.672;2022-12-18T02:14:31;5.90;;;4.20;;
27257;SDS011;62045;49.986;8.672;2022-12-18T02:19:41;5.72;;;4.13;;
27257;SDS011;62045;49.986;8.672;2022-12-18T02:24:57;5.88;;;3.88;;
27257;SDS011;62045;49.986;8.672;2022-12-18T02:30:06;5.88;;;4.20;;
27257;SDS011;62045;49.986;8.672;2022-12-18T02:40:13;5.22;;;3.80;;
27257;SDS011;62045;49.986;8.672;2022-12-18T02:45:17;5.93;;;4.10;;
27257;SDS011;62045;49.986;8.672;2022-12-18T02:50:21;6.53;;;4.30;;
27257;SDS011;62045;49.986;8.672;2022-12-18T02:55:34;5.97;;;4.03;;
27257;SDS011;62045;49.986;8.672;2022-12-18T03:00:51;6.25;;;3.95;;
27257;SDS011;62045;49.986;8.672;2022-12-18T03:05:57;5.75;;;3.75;;
27257;SDS011;62045;49.986;8.672;2022-12-18T03:11:03;5.78;;;3.78;;
27257;SDS011;62045;49.986;8.672;2022-12-18T03:16:10;5.35;;;3.67;;
27257;SDS011;62045;49.986;8.672;2022-12-18T03:21:15;5.85;;;3.80;;
27257;SDS011;62045;49.986;8.672;2022-12-18T03:26:22;5.28;;;3.42;;
27257;SDS011;62045;49.986;8.672;2022-12-18T03:31:30;6.47;;;3.78;;
27257;SDS011;62045;49.986;8.672;2022-12-18T03:36:32;5.15;;;3.72;;
27257;SDS011;62045;49.986;8.672;2022-12-18T03:41:41;5.30;;;4.45;;
27257;SDS011;62045;49.986;8.672;2022-12-18T03:47:05;5.88;;;3.97;;
27257;SDS011;62045;49.986;8.672;2022-12-18T03:52:11;6.32;;;4.05;;
27257;SDS011;62045;49.986;8.672;2022-12-18T03:57:19;6.13;;;3.90;;
27257;SDS011;62045;49.986;8.672;2022-12-18T04:02:26;4.90;;;3.65;;
27257;SDS011;62045;49.986;8.672;2022-12-18T04:07:27;5.82;;;3.88;;
27257;SDS011;62045;49.986;8.672;2022-12-18T04:12:30;4.65;;;3.22;;
27257;SDS011;62045;49.986;8.672;2022-12-18T04:17:32;5.93;;;3.85;;
27257;SDS011;62045;49.986;8.672;2022-12-18T04:27:35;5.20;;;3.60;;
27257;SDS011;62045;49.986;8.672;2022-12-18T04:32:40;5.63;;;3.83;;
27257;SDS011;62045;49.986;8.672;2022-12-18T04:37:42;6.10;;;3.92;;
27257;SDS011;62045;49.986;8.672;2022-12-18T04:42:43;5.25;;;3.53;;
27257;SDS011;62045;49.986;8.672;2022-12-18T04:47:45;5.35;;;3.72;;
27257;SDS011;62045;49.986;8.672;2022-12-18T04:52:46;6.43;;;3.88;;
27257;SDS011;62045;49.986;8.672;2022-12-18T04:57:47;5.50;;;3.67;;
27257;SDS011;62045;49.986;8.672;2022-12-18T05:02:49;5.65;;;3.33;;
27257;SDS011;62045;49.986;8.672;2022-12-18T05:07:49;4.85;;;3.22;;
27257;SDS011;62045;49.986;8.672;2022-12-18T05:12:50;4.35;;;3.10;;
27257;SDS011;62045;49.986;8.672;2022-12-18T05:17:52;4.93;;;3.58;;
27257;SDS011;62045;49.986;8.672;2022-12-18T05:22:53;5.05;;;3.40;;
27257;SDS011;62045;49.986;8.672;2022-12-18T05:27:54;5.65;;;3.45;;
27257;SDS011;62045;49.986;8.672;2022-12-18T05:32:56;4.93;;;3.15;;
27257;SDS011;62045;49.986;8.672;2022-12-18T05:37:57;4.70;;;3.35;;
27257;SDS011;62045;49.986;8.672;2022-12-18T05:42:57;5.25;;;3.33;;
27257;SDS011;62045;49.986;8.672;2022-12-18T05:47:59;4.30;;;3.03;;
27257;SDS011;62045;49.986;8.672;2022-12-18T05:53:00;6.20;;;3.58;;
27257;SDS011;62045;49.986;8.672;2022-12-18T05:58:01;4.45;;;2.80;;
27257;SDS011;62045;49.986;8.672;2022-12-18T06:03:03;3.95;;;2.90;;
27257;SDS011;62045;49.986;8.672;2022-12-18T06:08:04;4.80;;;3.22;;
27257;SDS011;62045;49.986;8.672;2022-12-18T06:13:05;5.03;;;3.47;;
27257;SDS011;62045;49.986;8.672;2022-12-18T06:18:08;4.50;;;3.10;;
27257;SDS011;62045;49.986;8.672;2022-12-18T06:23:09;5.00;;;3.05;;
27257;SDS011;62045;49.986;8.672;2022-12-18T06:28:10;4.55;;;3.05;;
27257;SDS011;62045;49.986;8.672;2022-12-18T06:33:12;4.32;;;2.92;;
27257;SDS011;62045;49.986;8.672;2022-12-18T06:38:12;5.22;;;3.55;;
27257;SDS011;62045;49.986;8.672;2022-12-18T06:43:13;4.65;;;3.10;;
27257;SDS011;62045;49.986;8.672;2022-12-18T06:48:15;4.40;;;2.92;;
27257;SDS011;62045;49.986;8.672;2022-12-18T06:53:16;4.85;;;3.10;;
27257;SDS011;62045;49.986;8.672;2022-12-18T06:58:16;5.07;;;3.30;;
27257;SDS011;62045;49.986;8.672;2022-12-18T07:03:18;7.53;;;5.65;;
27257;SDS011;62045;49.986;8.672;2022-12-18T07:08:19;8.82;;;6.47;;
27257;SDS011;62045;49.986;8.672;2022-12-18T07:13:20;11.57;;;8.63;;
27257;SDS011;62045;49.986;8.672;2022-12-18T07:18:22;14.48;;;8.30;;
27257;SDS011;62045;49.986;8.672;2022-12-18T07:23:23;22.33;;;10.13;;
27257;SDS011;62045;49.986;8.672;2022-12-18T07:28:24;21.42;;;10.35;;
27257;SDS011;62045;49.986;8.672;2022-12-18T07:33:26;25.17;;;11.02;;
27257;SDS011;62045;49.986;8.672;2022-12-18T07:38:26;21.45;;;11.02;;
27257;SDS011;62045;49.986;8.672;2022-12-18T07:43:27;19.17;;;12.25;;
27257;SDS011;62045;49.986;8.672;2022-12-18T07:48:29;29.88;;;13.73;;
27257;SDS011;62045;49.986;8.672;2022-12-18T07:53:31;20.75;;;12.55;;
27257;SDS011;62045;49.986;8.672;2022-12-18T07:58:32;21.10;;;12.90;;
27257;SDS011;62045;49.986;8.672;2022-12-18T08:03:35;20.35;;;12.63;;
27257;SDS011;62045;49.986;8.672;2022-12-18T08:08:36;23.63;;;12.43;;
27257;SDS011;62045;49.986;8.672;2022-12-18T08:13:37;16.50;;;10.90;;
27257;SDS011;62045;49.986;8.672;2022-12-18T08:18:39;15.15;;;10.20;;
27257;SDS011;62045;49.986;8.672;2022-12-18T08:23:40;16.48;;;9.95;;
27257;SDS011;62045;49.986;8.672;2022-12-18T08:28:42;21.67;;;9.50;;
27257;SDS011;62045;49.986;8.672;2022-12-18T08:33:44;18.98;;;9.70;;
27257;SDS011;62045;49.986;8.672;2022-12-18T08:38:45;20.52;;;8.82;;
27257;SDS011;62045;49.986;8.672;2022-12-18T08:43:46;11.95;;;7.75;;
27257;SDS011;62045;49.986;8.672;2022-12-18T08:48:49;13.93;;;8.50;;
27257;SDS011;62045;49.986;8.672;2022-12-18T08:53:51;15.10;;;9.32;;
27257;SDS011;62045;49.986;8.672;2022-12-18T08:58:52;18.73;;;10.23;;
27257;SDS011;62045;49.986;8.672;2022-12-18T09:03:55;18.02;;;11.27;;
27257;SDS011;62045;49.986;8.672;2022-12-18T09:08:56;13.38;;;9.60;;
27257;SDS011;62045;49.986;8.672;2022-12-18T09:13:57;16.05;;;9.07;;
27257;SDS011;62045;49.986;8.672;2022-12-18T09:19:02;13.52;;;7.97;;
27257;SDS011;62045;49.986;8.672;2022-12-18T09:24:04;15.23;;;7.50;;
27257;SDS011;62045;49.986;8.672;2022-12-18T09:29:05;10.48;;;6.85;;
27257;SDS011;62045;49.986;8.672;2022-12-18T09:34:07;15.38;;;7.15;;
27257;SDS011;62045;49.986;8.672;2022-12-18T09:39:08;10.98;;;7.00;;
27257;SDS011;62045;49.986;8.672;2022-12-18T09:44:11;11.25;;;6.72;;
27257;SDS011;62045;49.986;8.672;2022-12-18T09:49:20;10.43;;;6.22;;
27257;SDS011;62045;49.986;8.672;2022-12-18T09:54:26;11.00;;;6.57;;
27257;SDS011;62045;49.986;8.672;2022-12-18T09:59:34;9.23;;;5.82;;
27257;SDS011;62045;49.986;8.672;2022-12-18T10:04:38;10.40;;;6.15;;
27257;SDS011;62045;49.986;8.672;2022-12-18T10:09:40;9.80;;;6.25;;
27257;SDS011;62045;49.986;8.672;2022-12-18T10:14:47;11.50;;;6.00;;
27257;SDS011;62045;49.986;8.672;2022-12-18T10:19:56;8.48;;;5.75;;
27257;SDS011;62045;49.986;8.672;2022-12-18T10:25:02;8.90;;;5.60;;
27257;SDS011;62045;49.986;8.672;2022-12-18T10:30:13;7.38;;;5.60;;
27257;SDS011;62045;49.986;8.672;2022-12-18T10:35:17;12.10;;;6.70;;
27257;SDS011;62045;49.986;8.672;2022-12-18T10:40:19;9.07;;;5.90;;
27257;SDS011;62045;49.986;8.672;2022-12-18T10:45:20;11.10;;;6.57;;
27257;SDS011;62045;49.986;8.672;2022-12-18T10:50:24;10.52;;;6.65;;
27257;SDS011;62045;49.986;8.672;2022-12-18T10:55:29;7.93;;;5.50;;
27257;SDS011;62045;49.986;8.672;2022-12-18T11:00:32;8.93;;;5.90;;
27257;SDS011;62045;49.986;8.672;2022-12-18T11:05:34;8.13;;;6.18;;
27257;SDS011;62045;49.986;8.672;2022-12-18T11:10:36;8.32;;;5.93;;
27257;SDS011;62045;49.986;8.672;2022-12-18T11:15:37;9.00;;;6.05;;
27257;SDS011;62045;49.986;8.672;2022-12-18T11:20:42;7.88;;;5.38;;
27257;SDS011;62045;49.986;8.672;2022-12-18T11:25:54;7.47;;;5.20;;
27257;SDS011;62045;49.986;8.672;2022-12-18T11:31:08;9.93;;;5.30;;
27257;SDS011;62045;49.986;8.672;2022-12-18T11:36:17;8.00;;;5.43;;
27257;SDS011;62045;49.986;8.672;2022-12-18T11:41:20;7.80;;;5.60;;
27257;SDS011;62045;49.986;8.672;2022-12-18T11:46:26;8.10;;;5.25;;
27257;SDS011;62045;49.986;8.672;2022-12-18T11:51:37;8.23;;;5.15;;
27257;SDS011;62045;49.986;8.672;2022-12-18T11:56:48;10.02;;;4.97;;
27257;SDS011;62045;49.986;8.672;2022-12-18T12:01:52;8.15;;;5.30;;
27257;SDS011;62045;49.986;8.672;2022-12-18T12:06:58;7.15;;;4.93;;
27257;SDS011;62045;49.986;8.672;2022-12-18T12:12:10;6.93;;;4.90;;
27257;SDS011;62045;49.986;8.672;2022-12-18T12:17:27;8.20;;;5.60;;
27257;SDS011;62045;49.986;8.672;2022-12-18T12:22:40;8.43;;;5.93;;
27257;SDS011;62045;49.986;8.672;2022-12-18T12:27:50;9.73;;;6.53;;
27257;SDS011;62045;49.986;8.672;2022-12-18T12:33:05;66.68;;;19.55;;
27257;SDS011;62045;49.986;8.672;2022-12-18T12:38:19;65.47;;;28.48;;
27257;SDS011;62045;49.986;8.672;2022-12-18T12:43:25;45.83;;;22.65;;
27257;SDS011;62045;49.986;8.672;2022-12-18T12:48:33;37.85;;;20.75;;
27257;SDS011;62045;49.986;8.672;2022-12-18T12:53:42;36.03;;;18.92;;
27257;SDS011;62045;49.986;8.672;2022-12-18T12:58:46;29.03;;;17.13;;
27257;SDS011;62045;49.986;8.672;2022-12-18T13:04:00;27.70;;;16.75;;
27257;SDS011;62045;49.986;8.672;2022-12-18T13:09:09;24.80;;;15.33;;
27257;SDS011;62045;49.986;8.672;2022-12-18T13:14:19;24.45;;;15.20;;
27257;SDS011;62045;49.986;8.672;2022-12-18T13:19:22;20.98;;;13.90;;
27257;SDS011;62045;49.986;8.672;2022-12-18T13:24:27;18.90;;;12.13;;
27257;SDS011;62045;49.986;8.672;2022-12-18T13:29:40;17.35;;;11.43;;
27257;SDS011;62045;49.986;8.672;2022-12-18T13:34:43;18.80;;;10.30;;
27257;SDS011;62045;49.986;8.672;2022-12-18T13:39:45;16.85;;;10.40;;
27257;SDS011;62045;49.986;8.672;2022-12-18T13:44:45;13.73;;;9.50;;
27257;SDS011;62045;49.986;8.672;2022-12-18T13:49:46;14.25;;;9.77;;
27257;SDS011;62045;49.986;8.672;2022-12-18T13:54:50;13.85;;;9.35;;
27257;SDS011;62045;49.986;8.672;2022-12-18T13:59:52;14.02;;;9.45;;
27257;SDS011;62045;49.986;8.672;2022-12-18T14:04:53;13.18;;;9.38;;
27257;SDS011;62045;49.986;8.672;2022-12-18T14:09:56;13.73;;;9.23;;
27257;SDS011;62045;49.986;8.672;2022-12-18T14:14:58;12.40;;;8.38;;
27257;SDS011;62045;49.986;8.672;2022-12-18T14:20:00;13.15;;;8.75;;
27257;SDS011;62045;49.986;8.672;2022-12-18T14:25:10;12.20;;;8.13;;
27257;SDS011;62045;49.986;8.672;2022-12-18T14:35:23;10.20;;;7.35;;
27257;SDS011;62045;49.986;8.672;2022-12-18T14:40:26;11.73;;;8.00;;
27257;SDS011;62045;49.986;8.672;2022-12-18T14:45:34;11.00;;;7.55;;
27257;SDS011;62045;49.986;8.672;2022-12-18T14:50:35;11.18;;;7.75;;
27257;SDS011;62045;49.986;8.672;2022-12-18T14:55:37;13.43;;;8.10;;
27257;SDS011;62045;49.986;8.672;2022-12-18T15:00:38;11.45;;;7.47;;
27257;SDS011;62045;49.986;8.672;2022-12-18T15:05:42;10.85;;;7.00;;
27257;SDS011;62045;49.986;8.672;2022-12-18T15:10:47;11.55;;;7.32;;
27257;SDS011;62045;49.986;8.672;2022-12-18T15:15:48;11.18;;;7.53;;
27257;SDS011;62045;49.986;8.672;2022-12-18T15:20:49;10.88;;;7.88;;
27257;SDS011;62045;49.986;8.672;2022-12-18T15:25:57;9.82;;;7.10;;
27257;SDS011;62045;49.986;8.672;2022-12-18T15:31:03;10.68;;;7.65;;
27257;SDS011;62045;49.986;8.672;2022-12-18T15:36:08;9.48;;;6.38;;
27257;SDS011;62045;49.986;8.672;2022-12-18T15:41:12;8.98;;;6.75;;
27257;SDS011;62045;49.986;8.672;2022-12-18T15:46:15;11.27;;;6.90;;
27257;SDS011;62045;49.986;8.672;2022-12-18T15:51:17;10.50;;;6.63;;
27257;SDS011;62045;49.986;8.672;2022-12-18T15:56:22;8.60;;;6.38;;
27257;SDS011;62045;49.986;8.672;2022-12-18T16:01:23;9.60;;;6.60;;
27257;SDS011;62045;49.986;8.672;2022-12-18T16:06:26;9.43;;;6.65;;
27257;SDS011;62045;49.986;8.672;2022-12-18T16:11:29;8.68;;;6.30;;
27257;SDS011;62045;49.986;8.672;2022-12-18T16:16:32;9.73;;;6.55;;
27257;SDS011;62045;49.986;8.672;2022-12-18T16:21:33;9.57;;;6.40;;
27257;SDS011;62045;49.986;8.672;2022-12-18T16:26:36;9.77;;;7.18;;
27257;SDS011;62045;49.986;8.672;2022-12-18T16:31:36;9.45;;;6.50;;
27257;SDS011;62045;49.986;8.672;2022-12-18T16:36:37;8.82;;;5.95;;
27257;SDS011;62045;49.986;8.672;2022-12-18T16:41:40;12.52;;;8.77;;
27257;SDS011;62045;49.986;8.672;2022-12-18T16:46:40;12.75;;;8.95;;
27257;SDS011;62045;49.986;8.672;2022-12-18T16:51:41;14.35;;;10.20;;
27257;SDS011;62045;49.986;8.672;2022-12-18T16:56:43;13.85;;;10.00;;
27257;SDS011;62045;49.986;8.672;2022-12-18T17:01:44;15.07;;;10.65;;
27257;SDS011;62045;49.986;8.672;2022-12-18T17:06:45;14.35;;;10.35;;
27257;SDS011;62045;49.986;8.672;2022-12-18T17:11:47;15.25;;;10.73;;
27257;SDS011;62045;49.986;8.672;2022-12-18T17:16:48;17.52;;;12.02;;
27257;SDS011;62045;49.986;8.672;2022-12-18T17:21:49;17.27;;;11.90;;
27257;SDS011;62045;49.986;8.672;2022-12-18T17:26:52;17.13;;;11.75;;
27257;SDS011;62045;49.986;8.672;2022-12-18T17:31:52;18.02;;;12.20;;
27257;SDS011;62045;49.986;8.672;2022-12-18T17:36:53;18.05;;;12.68;;
27257;SDS011;62045;49.986;8.672;2022-12-18T17:41:55;17.35;;;12.00;;
27257;SDS011;62045;49.986;8.672;2022-12-18T17:46:56;18.65;;;12.68;;
27257;SDS011;62045;49.986;8.672;2022-12-18T17:51:57;17.13;;;12.07;;
27257;SDS011;62045;49.986;8.672;2022-12-18T17:56:59;16.65;;;12.63;;
27257;SDS011;62045;49.986;8.672;2022-12-18T18:02:00;15.38;;;11.02;;
27257;SDS011;62045;49.986;8.672;2022-12-18T18:07:00;15.90;;;10.60;;
27257;SDS011;62045;49.986;8.672;2022-12-18T18:12:03;12.02;;;9.35;;
27257;SDS011;62045;49.986;8.672;2022-12-18T18:17:04;17.02;;;8.90;;
27257;SDS011;62045;49.986;8.672;2022-12-18T18:22:05;14.05;;;9.30;;
27257;SDS011;62045;49.986;8.672;2022-12-18T18:27:07;10.35;;;7.75;;
27257;SDS011;62045;49.986;8.672;2022-12-18T18:32:07;11.60;;;8.48;;
27257;SDS011;62045;49.986;8.672;2022-12-18T18:37:08;10.82;;;7.97;;
27257;SDS011;62045;49.986;8.672;2022-12-18T18:42:11;10.23;;;7.32;;
27257;SDS011;62045;49.986;8.672;2022-12-18T18:47:12;11.00;;;7.82;;
27257;SDS011;62045;49.986;8.672;2022-12-18T18:52:12;11.48;;;7.18;;
27257;SDS011;62045;49.986;8.672;2022-12-18T18:57:14;10.55;;;7.20;;
27257;SDS011;62045;49.986;8.672;2022-12-18T19:02:15;9.25;;;7.18;;
27257;SDS011;62045;49.986;8.672;2022-12-18T19:07:16;9.45;;;6.65;;
27257;SDS011;62045;49.986;8.672;2022-12-18T19:12:18;10.10;;;6.88;;
27257;SDS011;62045;49.986;8.672;2022-12-18T19:17:19;9.05;;;6.38;;
27257;SDS011;62045;49.986;8.672;2022-12-18T19:22:20;10.93;;;7.05;;
27257;SDS011;62045;49.986;8.672;2022-12-18T19:27:23;8.68;;;6.18;;
27257;SDS011;62045;49.986;8.672;2022-12-18T19:32:23;8.65;;;6.25;;
27257;SDS011;62045;49.986;8.672;2022-12-18T19:37:24;8.50;;;5.80;;
27257;SDS011;62045;49.986;8.672;2022-12-18T19:42:26;9.23;;;6.20;;
27257;SDS011;62045;49.986;8.672;2022-12-18T19:47:27;8.35;;;5.90;;
27257;SDS011;62045;49.986;8.672;2022-12-18T19:52:28;8.35;;;5.82;;
27257;SDS011;62045;49.986;8.672;2022-12-18T19:57:30;8.88;;;5.90;;
27257;SDS011;62045;49.986;8.672;2022-12-18T20:02:31;8.07;;;5.53;;
27257;SDS011;62045;49.986;8.672;2022-12-18T20:07:32;9.40;;;6.10;;
27257;SDS011;62045;49.986;8.672;2022-12-18T20:12:34;8.23;;;5.53;;
27257;SDS011;62045;49.986;8.672;2022-12-18T20:17:34;9.32;;;6.20;;
27257;SDS011;62045;49.986;8.672;2022-12-18T20:22:35;8.07;;;5.30;;
27257;SDS011;62045;49.986;8.672;2022-12-18T20:27:37;7.28;;;5.07;;
27257;SDS011;62045;49.986;8.672;2022-12-18T20:32:38;8.85;;;5.68;;
27257;SDS011;62045;49.986;8.672;2022-12-18T20:37:39;8.38;;;5.32;;
27257;SDS011;62045;49.986;8.672;2022-12-18T20:42:41;7.85;;;5.32;;
27257;SDS011;62045;49.986;8.672;2022-12-18T20:47:41;6.80;;;4.55;;
27257;SDS011;62045;49.986;8.672;2022-12-18T20:52:42;7.05;;;4.93;;
27257;SDS011;62045;49.986;8.672;2022-12-18T20:57:44;6.00;;;4.47;;
27257;SDS011;62045;49.986;8.672;2022-12-18T21:02:45;7.13;;;4.88;;
27257;SDS011;62045;49.986;8.672;2022-12-18T21:07:46;7.20;;;4.80;;
27257;SDS011;62045;49.986;8.672;2022-12-18T21:12:48;8.18;;;4.72;;
27257;SDS011;62045;49.986;8.672;2022-12-18T21:17:50;7.22;;;5.03;;
27257;SDS011;62045;49.986;8.672;2022-12-18T21:22:50;7.10;;;4.57;;
27257;SDS011;62045;49.986;8.672;2022-12-18T21:27:52;6.47;;;4.25;;
27257;SDS011;62045;49.986;8.672;2022-12-18T21:32:53;5.78;;;3.97;;
27257;SDS011;62045;49.986;8.672;2022-12-18T21:37:54;5.70;;;4.07;;
27257;SDS011;62045;49.986;8.672;2022-12-18T21:42:56;7.55;;;4.40;;
27257;SDS011;62045;49.986;8.672;2022-12-18T21:47:57;6.53;;;4.50;;
27257;SDS011;62045;49.986;8.672;2022-12-18T21:52:57;6.03;;;4.50;;
27257;SDS011;62045;49.986;8.672;2022-12-18T21:57:59;6.22;;;4.32;;
27257;SDS011;62045;49.986;8.672;2022-12-18T22:03:00;6.25;;;4.28;;
27257;SDS011;62045;49.986;8.672;2022-12-18T22:08:01;7.57;;;4.32;;
27257;SDS011;62045;49.986;8.672;2022-12-18T22:13:03;7.45;;;4.72;;
27257;SDS011;62045;49.986;8.672;2022-12-18T22:18:04;6.88;;;4.63;;
27257;SDS011;62045;49.986;8.672;2022-12-18T22:23:05;6.90;;;4.70;;
27257;SDS011;62045;49.986;8.672;2022-12-18T22:28:07;6.00;;;3.90;;
27257;SDS011;62045;49.986;8.672;2022-12-18T22:33:08;6.25;;;4.15;;
27257;SDS011;62045;49.986;8.672;2022-12-18T22:38:09;8.50;;;4.75;;
27257;SDS011;62045;49.986;8.672;2022-12-18T22:43:11;5.05;;;3.58;;
27257;SDS011;62045;49.986;8.672;2022-12-18T22:48:11;6.20;;;4.38;;
27257;SDS011;62045;49.986;8.672;2022-12-18T22:53:12;7.68;;;4.18;;
27257;SDS011;62045;49.986;8.672;2022-12-18T22:58:14;6.53;;;4.32;;
27257;SDS011;62045;49.986;8.672;2022-12-18T23:03:15;6.18;;;4.10;;
27257;SDS011;62045;49.986;8.672;2022-12-18T23:08:15;5.75;;;4.05;;
27257;SDS011;62045;49.986;8.672;2022-12-18T23:13:18;7.32;;;4.25;;
27257;SDS011;62045;49.986;8.672;2022-12-18T23:18:18;6.28;;;3.95;;
27257;SDS011;62045;49.986;8.672;2022-12-18T23:23:19;5.53;;;3.75;;
27257;SDS011;62045;49.986;8.672;2022-12-18T23:28:22;6.03;;;3.90;;
27257;SDS011;62045;49.986;8.672;2022-12-18T23:33:22;5.72;;;3.83;;
27257;SDS011;62045;49.986;8.672;2022-12-18T23:38:23;6.45;;;4.15;;
27257;SDS011;62045;49.986;8.672;2022-12-18T23:43:28;6.78;;;4.07;;
27257;SDS011;62045;49.986;8.672;2022-12-18T23:48:28;6.00;;;3.97;;
27257;SDS011;62045;49.986;8.672;2022-12-18T23:53:29;5.07;;;3.38;;
27257;SDS011;62045;49.986;8.672;2022-12-18T23:58:31;5.60;;;3.30;;
